Time;durP1;ratioP1;P1;durP2;ratioP2;P2;SDS_P1;SDS_P2;PMS_P1;PMS_P2;Temp;Humidity;BMP_temperature;BMP_pressure;BME280_temperature;BME280_humidity;BME280_pressure;Samples;Min_cycle;Max_cycle;Signal;HPM_P1;HPM_P2
2023/09/08 00:01:58;;;;;;;11.13;8.40;;;15.10;99.90;;;;;;5004592;28;20298;-91
2023/09/08 00:04:25;;;;;;;9.57;7.60;;;14.90;99.90;;;;;;4988870;28;20215;-91
2023/09/08 00:09:37;;;;;;;9.07;8.15;;;14.80;99.90;;;;;;4986064;28;20312;-90
2023/09/08 00:14:45;;;;;;;9.82;7.22;;;14.70;99.90;;;;;;4982456;28;20286;-92
2023/09/08 00:17:12;;;;;;;8.93;7.28;;;14.70;99.90;;;;;;5003865;28;20223;-91
2023/09/08 00:19:39;;;;;;;9.50;7.38;;;14.70;99.90;;;;;;5009052;28;20211;-91
2023/09/08 00:22:08;;;;;;;10.25;7.32;;;14.60;99.90;;;;;;5011025;28;20199;-91
2023/09/08 00:24:56;;;;;;;9.30;8.13;;;14.50;99.90;;;;;;5001325;28;20207;-91
2023/09/08 00:27:23;;;;;;;8.77;7.88;;;14.50;99.90;;;;;;4979172;28;20217;-91
2023/09/08 00:29:49;;;;;;;10.23;7.53;;;14.70;99.90;;;;;;4976602;28;20207;-91
2023/09/08 00:34:58;;;;;;;8.88;7.40;;;14.80;99.90;;;;;;4963829;28;20239;-91
2023/09/08 00:42:49;;;;;;;10.57;7.70;;;15.00;99.90;;;;;;4977787;28;20200;-92
2023/09/08 00:45:16;;;;;;;8.77;6.90;;;15.00;99.90;;;;;;5002112;28;20207;-91
2023/09/08 00:47:43;;;;;;;8.77;7.43;;;14.90;99.90;;;;;;5000570;28;20210;-91
2023/09/08 00:50:10;;;;;;;8.20;7.28;;;14.70;99.90;;;;;;5002483;28;20206;-91
2023/09/08 00:52:39;;;;;;;7.95;7.15;;;14.50;99.90;;;;;;4978272;28;20665;-91
2023/09/08 00:55:28;;;;;;;11.52;7.30;;;14.50;99.90;;;;;;5000269;28;20218;-91
2023/09/08 00:57:55;;;;;;;8.07;6.78;;;14.40;99.90;;;;;;4996543;28;20231;-91
2023/09/08 01:00:22;;;;;;;9.63;7.10;;;14.40;99.90;;;;;;5012779;28;20716;-91
2023/09/08 01:02:49;;;;;;;8.75;7.10;;;14.50;99.90;;;;;;4974911;28;20246;-91
2023/09/08 01:05:16;;;;;;;10.23;7.40;;;14.40;99.90;;;;;;5012386;28;20206;-91
2023/09/08 01:07:47;;;;;;;10.88;6.95;;;14.40;99.90;;;;;;4995679;28;20211;-91
2023/09/08 01:10:14;;;;;;;11.10;7.60;;;14.40;99.90;;;;;;4989804;28;20254;-91
2023/09/08 01:12:41;;;;;;;8.77;7.20;;;14.30;99.90;;;;;;4991160;28;20277;-91
2023/09/08 01:15:09;;;;;;;9.80;7.47;;;14.20;99.90;;;;;;4980177;28;20211;-91
2023/09/08 01:17:36;;;;;;;7.68;6.70;;;14.20;99.90;;;;;;4992322;28;20223;-91
2023/09/08 01:23:12;;;;;;;8.07;7.28;;;14.10;99.90;;;;;;4994979;28;20677;-91
2023/09/08 01:29:14;;;;;;;8.43;7.53;;;14.00;99.90;;;;;;4973265;28;20230;-91
2023/09/08 01:32:00;;;;;;;8.00;7.18;;;13.90;99.90;;;;;;4999087;28;20214;-91
2023/09/08 01:34:27;;;;;;;8.77;7.30;;;13.90;99.90;;;;;;5024539;28;20199;-91
2023/09/08 01:36:54;;;;;;;7.88;7.10;;;14.00;99.90;;;;;;5015084;28;20237;-91
2023/09/08 01:39:21;;;;;;;9.20;7.10;;;14.00;99.90;;;;;;5022250;28;20209;-91
2023/09/08 01:41:50;;;;;;;9.07;7.13;;;14.00;99.90;;;;;;5024984;28;20226;-91
2023/09/08 01:44:16;;;;;;;7.60;6.80;;;14.00;99.90;;;;;;5010275;28;20207;-91
2023/09/08 01:49:24;;;;;;;10.13;6.65;;;13.80;99.90;;;;;;5002012;28;20210;-91
2023/09/08 01:51:51;;;;;;;8.13;6.93;;;13.80;99.90;;;;;;4993536;28;20749;-90
2023/09/08 01:54:18;;;;;;;10.05;6.93;;;13.80;99.90;;;;;;4990551;28;20571;-91
2023/09/08 01:56:45;;;;;;;8.43;6.82;;;13.70;99.90;;;;;;5005522;28;20227;-90
2023/09/08 01:59:13;;;;;;;7.72;6.93;;;13.70;99.90;;;;;;5003473;28;20206;-91
2023/09/08 02:01:41;;;;;;;9.82;6.70;;;13.70;99.90;;;;;;4991567;28;20203;-91
2023/09/08 02:04:08;;;;;;;7.32;6.55;;;13.80;99.90;;;;;;4980203;28;20669;-91
2023/09/08 02:06:34;;;;;;;8.13;6.90;;;13.90;99.90;;;;;;4985998;28;20203;-91
2023/09/08 02:09:01;;;;;;;10.23;7.13;;;13.90;99.90;;;;;;4996928;28;20207;-91
2023/09/08 02:11:29;;;;;;;8.27;6.95;;;13.70;99.90;;;;;;4999172;28;20223;-91
2023/09/08 02:13:55;;;;;;;7.03;6.32;;;13.60;99.90;;;;;;4993152;28;20211;-91
2023/09/08 02:16:24;;;;;;;8.73;7.30;;;13.60;99.90;;;;;;5012074;28;20203;-90
2023/09/08 02:18:52;;;;;;;8.48;6.72;;;13.50;99.90;;;;;;5003112;28;20204;-91
2023/09/08 02:21:18;;;;;;;7.90;7.10;;;13.40;99.90;;;;;;5009824;28;20249;-91
2023/09/08 02:23:45;;;;;;;8.75;6.90;;;13.40;99.90;;;;;;4996631;28;20270;-91
2023/09/08 02:26:12;;;;;;;10.80;6.85;;;13.40;99.90;;;;;;4975334;28;20582;-91
2023/09/08 02:28:39;;;;;;;10.80;6.53;;;13.40;99.90;;;;;;4994838;28;20657;-91
2023/09/08 02:31:06;;;;;;;7.75;6.95;;;13.50;99.90;;;;;;5012951;28;20682;-91
2023/09/08 02:33:37;;;;;;;9.05;7.50;;;13.50;99.90;;;;;;5007060;28;20286;-91
2023/09/08 02:38:46;;;;;;;8.00;7.20;;;13.40;99.90;;;;;;4985265;28;20203;-91
2023/09/08 02:41:13;;;;;;;8.35;6.78;;;13.40;99.90;;;;;;4993913;28;20204;-91
2023/09/08 02:43:42;;;;;;;8.07;7.07;;;13.40;99.90;;;;;;4995645;28;20207;-90
2023/09/08 02:46:09;;;;;;;9.25;6.80;;;13.40;99.90;;;;;;4996721;28;20196;-91
2023/09/08 02:51:19;;;;;;;8.95;6.78;;;13.40;99.90;;;;;;4993470;28;20592;-91
2023/09/08 02:53:46;;;;;;;8.88;7.18;;;13.50;99.90;;;;;;5013181;28;20553;-91
2023/09/08 02:56:13;;;;;;;8.05;6.85;;;13.50;99.90;;;;;;4994009;28;20204;-91
2023/09/08 02:58:40;;;;;;;8.63;7.10;;;13.40;99.90;;;;;;5013557;28;20218;-91
2023/09/08 03:06:38;;;;;;;8.10;7.30;;;13.10;99.90;;;;;;5004778;28;20212;-91
2023/09/08 03:09:05;;;;;;;9.18;7.47;;;13.10;99.90;;;;;;4993824;28;20213;-91
2023/09/08 03:11:32;;;;;;;9.63;7.47;;;13.00;99.90;;;;;;4985111;28;20208;-91
2023/09/08 03:13:59;;;;;;;11.30;6.88;;;13.00;99.90;;;;;;5000764;28;20199;-91
2023/09/08 03:16:26;;;;;;;9.60;7.20;;;13.10;99.90;;;;;;5006710;28;20231;-92
2023/09/08 03:18:53;;;;;;;10.82;7.07;;;13.00;99.90;;;;;;4982364;28;20228;-91
2023/09/08 03:24:06;;;;;;;9.15;7.25;;;12.90;99.90;;;;;;4989018;28;20211;-91
2023/09/08 03:26:33;;;;;;;8.55;7.30;;;13.00;99.90;;;;;;4990108;28;20290;-91
2023/09/08 03:29:00;;;;;;;9.25;6.85;;;13.00;99.90;;;;;;5011023;28;20199;-91
2023/09/08 03:31:27;;;;;;;8.32;6.80;;;13.00;99.90;;;;;;4986638;28;20218;-91
2023/09/08 03:33:54;;;;;;;7.65;6.85;;;13.00;99.90;;;;;;4983584;28;20235;-91
2023/09/08 03:39:04;;;;;;;8.95;6.75;;;12.90;99.90;;;;;;4988377;28;20213;-91
2023/09/08 03:41:31;;;;;;;7.53;6.80;;;12.90;99.90;;;;;;4998042;28;20207;-90
2023/09/08 03:44:00;;;;;;;7.35;6.65;;;12.90;99.90;;;;;;5009376;28;20203;-91
2023/09/08 03:46:27;;;;;;;7.03;6.07;;;12.90;99.90;;;;;;4994541;28;20992;-91
2023/09/08 03:49:00;;;;;;;7.85;7.07;;;12.90;99.90;;;;;;5001991;28;20235;-91
2023/09/08 03:54:10;;;;;;;7.65;6.70;;;12.80;99.90;;;;;;4964299;28;20195;-91
2023/09/08 03:56:38;;;;;;;8.27;7.45;;;12.80;99.90;;;;;;5011918;28;20203;-91
2023/09/08 03:59:05;;;;;;;8.10;7.25;;;12.80;99.90;;;;;;4989581;28;20274;-90
2023/09/08 04:01:32;;;;;;;9.98;7.25;;;12.70;99.90;;;;;;5008710;28;20655;-91
2023/09/08 04:04:00;;;;;;;8.75;6.97;;;12.80;99.90;;;;;;5009076;28;20203;-91
2023/09/08 04:06:37;;;;;;;8.75;6.85;;;12.90;99.90;;;;;;4983841;28;20204;-91
2023/09/08 04:09:04;;;;;;;7.40;6.60;;;13.00;99.90;;;;;;4992529;28;20581;-91
2023/09/08 04:11:31;;;;;;;8.25;7.32;;;13.00;99.90;;;;;;5002666;28;20199;-91
2023/09/08 04:13:59;;;;;;;10.20;6.65;;;13.10;99.90;;;;;;4990846;28;20199;-91
2023/09/08 04:16:27;;;;;;;7.60;6.80;;;13.00;99.90;;;;;;5004824;28;20200;-91
2023/09/08 04:18:54;;;;;;;11.05;7.10;;;12.90;99.90;;;;;;5008192;28;20224;-91
2023/09/08 04:21:22;;;;;;;8.25;6.90;;;12.80;99.90;;;;;;4991514;28;20259;-90
2023/09/08 04:26:31;;;;;;;7.93;6.95;;;12.70;99.90;;;;;;4964537;28;20206;-91
2023/09/08 04:28:58;;;;;;;8.20;6.43;;;12.70;99.90;;;;;;4994359;28;20206;-91
2023/09/08 04:31:28;;;;;;;7.38;6.60;;;12.70;99.90;;;;;;5010972;28;20291;-91
2023/09/08 04:33:55;;;;;;;9.32;6.95;;;12.70;99.90;;;;;;5006006;28;20655;-91
2023/09/08 04:36:22;;;;;;;8.60;6.90;;;12.70;99.90;;;;;;4988456;28;20552;-91
2023/09/08 04:41:34;;;;;;;8.02;7.00;;;12.60;99.90;;;;;;4983016;28;20225;-91
2023/09/08 04:44:02;;;;;;;8.77;6.80;;;12.60;99.90;;;;;;5009279;28;20234;-91
2023/09/08 04:46:30;;;;;;;7.82;6.57;;;12.50;99.90;;;;;;5007917;28;20650;-91
2023/09/08 04:48:58;;;;;;;8.88;7.43;;;12.50;99.90;;;;;;4988006;28;20265;-92
2023/09/08 04:51:25;;;;;;;8.13;6.90;;;12.50;99.90;;;;;;5015555;28;20209;-91
2023/09/08 04:53:54;;;;;;;7.78;6.75;;;12.60;99.90;;;;;;5033679;28;20258;-92
2023/09/08 04:56:21;;;;;;;9.50;7.13;;;12.50;99.90;;;;;;5015564;28;20294;-91
2023/09/08 04:58:48;;;;;;;8.25;7.18;;;12.60;99.90;;;;;;5009759;28;20229;-91
2023/09/08 05:01:15;;;;;;;8.98;6.93;;;12.70;99.90;;;;;;4980249;28;20204;-91
2023/09/08 05:03:42;;;;;;;9.05;7.90;;;12.90;99.90;;;;;;4990575;28;20247;-91
2023/09/08 05:06:09;;;;;;;9.43;7.15;;;12.90;99.90;;;;;;5006064;28;20213;-91
2023/09/08 05:08:37;;;;;;;10.23;8.82;;;12.80;99.90;;;;;;5003522;28;20210;-91
2023/09/08 05:11:06;;;;;;;10.23;8.40;;;12.80;99.90;;;;;;5006710;28;20204;-91
2023/09/08 05:13:32;;;;;;;11.57;10.20;;;13.00;99.90;;;;;;5004141;28;20210;-91
2023/09/08 05:16:10;;;;;;;11.40;10.23;;;13.00;99.90;;;;;;5005811;28;20575;-91
2023/09/08 05:18:47;;;;;;;12.00;9.48;;;13.10;99.90;;;;;;4990429;28;20241;-91
2023/09/08 05:21:17;;;;;;;12.52;11.23;;;13.30;99.90;;;;;;5005345;28;20560;-91
2023/09/08 05:23:44;;;;;;;8.48;7.53;;;13.20;99.90;;;;;;4990411;28;20200;-91
2023/09/08 05:26:14;;;;;;;9.00;7.18;;;13.10;99.90;;;;;;4999123;28;20203;-91
2023/09/08 05:28:41;;;;;;;21.08;18.60;;;13.20;99.90;;;;;;5004523;28;20195;-91
2023/09/08 05:31:08;;;;;;;26.17;20.50;;;13.40;99.90;;;;;;5000276;28;20210;-90
2023/09/08 05:33:34;;;;;;;26.63;23.23;;;13.80;99.90;;;;;;5002080;28;20206;-91
2023/09/08 05:36:02;;;;;;;23.05;19.95;;;13.90;99.90;;;;;;5004908;28;20207;-91
2023/09/08 05:38:29;;;;;;;15.50;13.85;;;14.20;99.90;;;;;;4986195;28;20895;-91
2023/09/08 05:40:55;;;;;;;17.05;14.52;;;14.30;99.90;;;;;;5004080;28;20204;-91
2023/09/08 05:43:25;;;;;;;13.38;10.82;;;14.30;99.90;;;;;;5013854;28;20191;-91
2023/09/08 05:45:52;;;;;;;11.20;9.90;;;14.50;99.90;;;;;;4994574;28;20202;-91
2023/09/08 05:48:19;;;;;;;11.70;8.65;;;14.60;99.90;;;;;;5011892;28;20211;-91
2023/09/08 05:50:46;;;;;;;9.93;7.93;;;14.70;99.90;;;;;;4990453;28;20226;-91
2023/09/08 05:53:13;;;;;;;11.00;7.57;;;14.70;99.90;;;;;;4974790;28;20195;-91
2023/09/08 05:55:41;;;;;;;7.50;6.70;;;14.60;99.90;;;;;;5008336;28;20206;-91
2023/09/08 05:58:08;;;;;;;8.68;6.68;;;14.70;99.90;;;;;;5008850;28;20476;-91
2023/09/08 06:00:41;;;;;;;8.25;7.15;;;14.60;99.90;;;;;;4992849;28;20203;-91
2023/09/08 06:03:29;;;;;;;12.18;7.32;;;14.40;99.90;;;;;;4999748;28;20211;-91
2023/09/08 06:05:56;;;;;;;9.75;7.60;;;14.40;99.90;;;;;;5010512;28;20267;-92
2023/09/08 06:08:24;;;;;;;13.98;9.18;;;14.30;99.90;;;;;;5011379;28;20214;-95
2023/09/08 06:10:53;;;;;;;10.43;9.00;;;14.30;99.90;;;;;;4996673;28;20291;-90
2023/09/08 06:13:20;;;;;;;8.75;7.80;;;14.60;99.90;;;;;;5009219;28;20223;-90
2023/09/08 06:15:48;;;;;;;18.38;14.82;;;14.60;99.90;;;;;;5012588;28;20654;-91
2023/09/08 06:18:15;;;;;;;13.38;11.75;;;14.80;99.90;;;;;;5015710;28;20223;-90
2023/09/08 06:20:46;;;;;;;9.75;8.75;;;15.10;99.90;;;;;;4999827;28;20200;-90
2023/09/08 06:23:13;;;;;;;9.63;8.48;;;15.30;99.90;;;;;;5016986;28;20199;-89
2023/09/08 06:25:42;;;;;;;9.95;7.40;;;15.30;99.90;;;;;;5016520;28;20198;-90
2023/09/08 06:28:09;;;;;;;12.15;8.50;;;15.50;99.90;;;;;;5016767;28;20202;-89
2023/09/08 06:30:36;;;;;;;10.20;8.05;;;15.60;99.90;;;;;;4983188;28;20214;-89
2023/09/08 06:33:05;;;;;;;10.48;8.38;;;15.70;99.90;;;;;;5015341;28;20196;-89
2023/09/08 06:35:33;;;;;;;11.68;7.95;;;15.80;99.90;;;;;;5017669;28;20212;-90
2023/09/08 06:38:00;;;;;;;11.15;8.63;;;15.80;99.90;;;;;;4988985;28;20228;-89
2023/09/08 06:40:28;;;;;;;9.15;8.15;;;15.80;99.90;;;;;;5003835;28;20654;-89
2023/09/08 06:42:55;;;;;;;10.95;9.77;;;15.90;99.90;;;;;;4983699;28;20242;-91
2023/09/08 06:45:22;;;;;;;13.77;10.00;;;15.90;99.90;;;;;;5006692;28;20661;-89
2023/09/08 06:47:54;;;;;;;12.27;9.63;;;16.00;99.90;;;;;;4995919;28;20570;-91
2023/09/08 07:16:39;;;;;;;11.48;9.15;;;17.30;99.90;;;;;;4999388;28;20250;-94
2023/09/08 07:19:09;;;;;;;13.60;10.32;;;17.40;99.90;;;;;;4995661;28;20231;-93
2023/09/08 07:21:37;;;;;;;13.32;9.85;;;17.40;99.90;;;;;;4994437;28;20199;-94
2023/09/08 07:39:37;;;;;;;10.25;9.25;;;18.20;98.20;;;;;;5588944;23;20290;-88
2023/09/08 07:42:04;;;;;;;12.57;8.88;;;18.30;98.40;;;;;;5013251;28;20204;-90
2023/09/08 07:44:31;;;;;;;11.63;9.60;;;18.40;98.20;;;;;;5002137;28;20233;-89
2023/09/08 07:46:58;;;;;;;14.95;9.38;;;18.50;97.70;;;;;;5003380;28;20211;-87
2023/09/08 07:49:25;;;;;;;11.13;9.77;;;18.60;97.80;;;;;;5005019;28;20199;-89
2023/09/08 07:51:52;;;;;;;13.40;9.60;;;18.70;97.20;;;;;;4991074;28;20223;-90
2023/09/08 07:54:19;;;;;;;13.95;9.27;;;18.90;97.10;;;;;;4999645;28;20212;-92
2023/09/08 07:56:48;;;;;;;11.25;9.85;;;19.00;96.50;;;;;;5002078;28;20196;-90
2023/09/08 07:59:15;;;;;;;10.13;8.90;;;19.20;96.50;;;;;;5029198;23;20240;-91
2023/09/08 08:01:42;;;;;;;15.85;9.70;;;19.30;95.80;;;;;;5075896;23;20232;-93
2023/09/08 08:07:27;;;;;;;13.85;9.32;;;19.50;95.30;;;;;;4970141;28;20286;-93
2023/09/08 08:09:54;;;;;;;12.23;8.50;;;19.50;95.20;;;;;;5007120;28;20206;-93
2023/09/08 08:16:01;;;;;;;12.15;9.38;;;19.70;95.20;;;;;;4967252;28;20251;-89
2023/09/08 08:18:28;;;;;;;16.08;9.88;;;20.00;93.70;;;;;;4973095;28;20701;-89
2023/09/08 08:20:54;;;;;;;10.57;9.10;;;20.00;93.50;;;;;;4973012;28;20759;-90
2023/09/08 08:23:29;;;;;;;20.88;9.32;;;20.00;93.60;;;;;;4992186;28;20199;-88
2023/09/08 08:25:55;;;;;;;10.80;9.70;;;20.00;93.80;;;;;;4990413;28;20199;-90
2023/09/08 08:28:24;;;;;;;11.27;9.07;;;20.10;93.60;;;;;;4971233;28;20204;-89
2023/09/08 08:30:51;;;;;;;9.30;8.45;;;20.10;93.50;;;;;;4976243;28;20254;-94
2023/09/08 08:36:03;;;;;;;10.48;8.65;;;20.70;92.80;;;;;;4973723;28;20287;-89
2023/09/08 08:38:30;;;;;;;10.57;8.43;;;20.90;92.30;;;;;;4974925;28;20285;-89
2023/09/08 08:43:48;;;;;;;11.30;8.00;;;21.00;91.80;;;;;;4962977;28;20199;-91
2023/09/08 08:46:15;;;;;;;12.93;8.68;;;21.00;92.10;;;;;;4983548;28;20211;-90
2023/09/08 08:51:42;;;;;;;10.70;8.98;;;21.60;91.00;;;;;;4976260;28;20222;-89
2023/09/08 08:54:11;;;;;;;13.32;8.43;;;21.80;89.70;;;;;;4946869;28;20209;-89
2023/09/08 08:56:38;;;;;;;12.15;7.90;;;21.80;88.70;;;;;;4958280;28;20201;-89
2023/09/08 08:59:06;;;;;;;12.07;8.75;;;21.90;89.50;;;;;;4955093;28;20235;-90
2023/09/08 09:01:33;;;;;;;8.18;7.43;;;22.30;86.20;;;;;;4953881;28;20208;-88
2023/09/08 09:04:06;;;;;;;11.05;6.45;;;23.40;80.60;;;;;;4968432;28;20211;-87
2023/09/08 09:06:33;;;;;;;8.75;6.18;;;25.00;65.60;;;;;;4954474;28;20204;-88
2023/09/08 09:09:01;;;;;;;11.55;7.68;;;26.90;42.70;;;;;;4969640;28;20207;-88
2023/09/08 09:11:28;;;;;;;10.75;9.18;;;28.20;28.70;;;;;;4957542;28;20193;-89
2023/09/08 09:13:56;;;;;;;8.27;6.90;;;29.40;20.50;;;;;;4961976;28;20299;-90
2023/09/08 09:16:25;;;;;;;8.85;7.72;;;30.90;17.10;;;;;;4955541;28;20212;-89
2023/09/08 09:32:40;;;;;;;12.18;7.88;;;33.20;10.60;;;;;;4957085;28;20200;-90
2023/09/08 09:35:08;;;;;;;8.25;7.55;;;34.20;9.10;;;;;;4955543;28;20211;-90
2023/09/08 09:38:27;;;;;;;8.32;7.45;;;34.30;9.10;;;;;;4945080;28;20219;-91
2023/09/08 09:59:09;;;;;;;7.85;7.05;;;32.70;10.40;;;;;;4919736;29;20565;-92
2023/09/08 10:01:57;;;;;;;8.98;6.85;;;31.60;13.80;;;;;;4975266;28;20251;-90
2023/09/08 10:07:48;;;;;;;8.80;7.78;;;31.70;14.20;;;;;;4966889;28;20208;-91
2023/09/08 10:10:16;;;;;;;7.88;7.18;;;31.50;14.20;;;;;;4952820;28;20196;-91
2023/09/08 10:12:54;;;;;;;8.77;7.65;;;31.90;13.10;;;;;;4950913;28;20694;-92
2023/09/08 10:26:55;;;;;;;7.35;6.63;;;31.10;15.70;;;;;;4963690;28;20231;-92
2023/09/08 10:35:09;;;;;;;8.15;7.40;;;30.80;17.10;;;;;;4985859;28;20210;-95
2023/09/08 10:53:43;;;;;;;7.18;6.45;;;29.80;18.50;;;;;;5090097;23;20241;-93
2023/09/08 10:56:09;;;;;;;8.80;7.63;;;30.80;15.70;;;;;;5007752;28;20214;-91
2023/09/08 11:19:28;;;;;;;9.82;7.35;;;29.10;20.60;;;;;;4904175;29;20178;-90
2023/09/08 11:22:13;;;;;;;10.48;7.50;;;28.90;20.40;;;;;;4926450;29;20229;-91
2023/09/08 11:24:42;;;;;;;11.07;7.55;;;28.50;20.80;;;;;;4958431;28;20197;-90
2023/09/08 11:30:41;;;;;;;11.18;7.70;;;28.40;21.00;;;;;;5011739;28;20203;-92
2023/09/08 11:33:14;;;;;;;9.15;7.75;;;28.40;21.40;;;;;;5010434;28;20302;-91
2023/09/08 11:52:08;;;;;;;9.05;7.97;;;28.40;19.10;;;;;;5307525;23;20242;-92
2023/09/08 11:57:19;;;;;;;10.98;7.90;;;28.20;18.30;;;;;;4992094;28;20214;-92
2023/09/08 12:14:40;;;;;;;11.88;7.47;;;27.80;21.90;;;;;;4991364;28;20984;-91
2023/09/08 12:17:17;;;;;;;8.05;7.25;;;27.70;21.90;;;;;;4992114;28;20714;-91
2023/09/08 12:19:44;;;;;;;10.07;7.32;;;27.70;22.20;;;;;;4992023;28;20230;-90
2023/09/08 12:22:12;;;;;;;8.80;7.53;;;27.80;21.40;;;;;;4978914;28;20222;-93
2023/09/08 12:24:50;;;;;;;7.85;6.97;;;27.60;21.60;;;;;;4982545;28;20294;-91
2023/09/08 12:38:40;;;;;;;10.43;7.28;;;27.70;20.60;;;;;;5091455;23;20275;-91
2023/09/08 12:41:07;;;;;;;8.38;7.47;;;27.70;21.70;;;;;;4970110;28;20230;-91
2023/09/08 12:46:30;;;;;;;9.98;7.45;;;27.70;21.90;;;;;;4983621;28;20208;-91
2023/09/08 12:48:57;;;;;;;10.30;7.18;;;27.70;20.80;;;;;;4982427;28;20308;-89
2023/09/08 12:51:24;;;;;;;8.05;7.25;;;27.70;23.10;;;;;;4968441;28;20226;-91
2023/09/08 12:53:50;;;;;;;9.55;7.00;;;27.60;22.20;;;;;;4948958;29;20216;-89
2023/09/08 12:56:18;;;;;;;8.63;7.13;;;27.50;21.30;;;;;;4969315;28;20287;-91
2023/09/08 12:58:46;;;;;;;8.32;7.28;;;27.50;22.90;;;;;;4948385;29;20551;-92
2023/09/08 13:01:13;;;;;;;7.47;6.70;;;27.50;21.50;;;;;;4962786;28;20225;-91
2023/09/08 13:03:40;;;;;;;7.72;6.53;;;27.60;22.30;;;;;;4963386;28;20204;-90
2023/09/08 13:06:07;;;;;;;8.85;6.88;;;27.60;22.40;;;;;;4945808;28;20278;-92
2023/09/08 13:08:34;;;;;;;8.07;7.28;;;27.60;21.70;;;;;;4960482;28;20205;-90
2023/09/08 13:11:01;;;;;;;8.70;6.85;;;27.70;22.00;;;;;;4951737;28;20204;-91
2023/09/08 13:13:29;;;;;;;10.48;7.32;;;27.50;22.50;;;;;;4964186;28;20212;-90
2023/09/08 13:15:57;;;;;;;15.68;11.45;;;27.50;22.80;;;;;;4959926;28;20271;-91
2023/09/08 13:18:24;;;;;;;19.08;16.40;;;27.50;22.80;;;;;;4960345;28;20239;-91
2023/09/08 13:20:51;;;;;;;11.90;9.13;;;27.50;23.00;;;;;;4965596;28;20227;-91
2023/09/08 13:23:18;;;;;;;8.32;6.63;;;27.50;23.10;;;;;;4967101;28;20197;-92
2023/09/08 13:28:15;;;;;;;9.48;7.53;;;27.50;22.90;;;;;;4980397;28;20224;-90
2023/09/08 13:30:42;;;;;;;10.35;6.93;;;27.50;24.80;;;;;;5225234;23;20251;-90
2023/09/08 13:33:10;;;;;;;7.88;7.18;;;27.50;23.40;;;;;;5797040;23;20237;-87
2023/09/08 13:38:13;;;;;;;8.25;6.82;;;27.60;23.00;;;;;;5554201;23;20246;-89
2023/09/08 13:40:41;;;;;;;8.73;7.13;;;27.50;25.00;;;;;;5001336;28;20222;-89
2023/09/08 13:43:08;;;;;;;8.68;6.30;;;27.50;24.20;;;;;;5004460;28;20203;-90
2023/09/08 13:45:35;;;;;;;7.45;6.60;;;27.50;24.10;;;;;;5001013;28;20262;-90
2023/09/08 13:48:04;;;;;;;12.63;7.50;;;27.40;24.00;;;;;;4999860;28;20194;-90
2023/09/08 13:50:34;;;;;;;7.30;6.60;;;27.40;24.10;;;;;;5005407;28;20258;-90
2023/09/08 13:53:01;;;;;;;8.68;6.18;;;27.40;24.10;;;;;;4998673;28;20234;-89
2023/09/08 13:55:28;;;;;;;7.70;6.28;;;27.40;24.70;;;;;;5014728;28;20237;-90
2023/09/08 13:57:55;;;;;;;9.85;6.20;;;27.50;24.60;;;;;;5003325;28;20207;-90
2023/09/08 14:00:22;;;;;;;7.78;6.28;;;27.40;25.00;;;;;;5017705;28;20243;-90
2023/09/08 14:02:49;;;;;;;7.22;6.53;;;27.40;24.70;;;;;;5007363;28;21967;-90
2023/09/08 14:05:15;;;;;;;7.20;5.97;;;27.40;25.30;;;;;;5012789;28;20211;-90
2023/09/08 14:07:44;;;;;;;10.07;7.00;;;27.40;24.70;;;;;;4976144;28;20246;-89
2023/09/08 14:10:11;;;;;;;7.00;6.25;;;27.40;25.10;;;;;;5012804;28;20209;-91
2023/09/08 14:12:38;;;;;;;7.50;6.18;;;27.30;25.90;;;;;;5012563;28;20199;-90
2023/09/08 14:15:06;;;;;;;6.95;6.20;;;27.30;26.40;;;;;;5005386;28;20207;-90
2023/09/08 14:17:33;;;;;;;10.55;6.10;;;27.10;26.70;;;;;;5009059;28;20210;-91
2023/09/08 14:19:59;;;;;;;10.40;6.32;;;27.10;25.80;;;;;;4987399;28;20215;-90
2023/09/08 14:22:26;;;;;;;9.32;6.32;;;27.10;25.80;;;;;;5014796;28;20201;-91
2023/09/08 14:27:36;;;;;;;7.60;6.18;;;27.10;25.00;;;;;;5017597;28;20632;-90
2023/09/08 14:30:03;;;;;;;9.98;6.40;;;27.00;25.30;;;;;;5027732;28;20210;-92
2023/09/08 14:32:30;;;;;;;11.40;5.75;;;26.90;25.80;;;;;;5027985;28;20188;-92
2023/09/08 14:34:57;;;;;;;7.60;5.68;;;26.90;25.70;;;;;;5027950;28;20206;-91
2023/09/08 14:37:24;;;;;;;5.93;5.43;;;26.80;26.70;;;;;;4997492;28;20250;-90
2023/09/08 14:39:51;;;;;;;7.63;6.07;;;26.90;26.10;;;;;;4990600;28;20220;-90
2023/09/08 14:42:20;;;;;;;6.28;5.47;;;26.90;25.30;;;;;;4986977;28;20203;-90
2023/09/08 14:44:51;;;;;;;7.45;5.82;;;27.00;25.70;;;;;;4984784;28;20196;-91
2023/09/08 14:47:20;;;;;;;7.60;6.15;;;26.90;25.60;;;;;;4960221;28;20203;-92
2023/09/08 14:52:16;;;;;;;9.30;6.47;;;26.70;26.60;;;;;;5118852;23;20229;-92
2023/09/08 14:54:43;;;;;;;6.63;6.03;;;26.60;26.60;;;;;;4968487;28;20197;-92
2023/09/08 15:04:58;;;;;;;8.90;6.07;;;26.60;26.30;;;;;;5052840;23;20242;-90
2023/09/08 15:07:25;;;;;;;8.88;6.22;;;26.60;26.50;;;;;;4979364;28;20199;-91
2023/09/08 15:12:36;;;;;;;7.63;6.15;;;26.60;27.20;;;;;;4992742;28;20207;-91
2023/09/08 15:15:04;;;;;;;7.20;6.53;;;26.50;27.10;;;;;;4969415;28;20295;-91
2023/09/08 15:17:51;;;;;;;9.80;6.13;;;26.40;28.40;;;;;;4986414;28;20200;-90
2023/09/08 15:20:21;;;;;;;6.28;5.78;;;26.40;28.00;;;;;;4991691;28;20216;-90
2023/09/08 15:22:49;;;;;;;6.35;5.65;;;26.30;28.30;;;;;;4991238;28;20208;-91
2023/09/08 15:25:17;;;;;;;8.85;6.93;;;26.30;28.70;;;;;;5289055;23;20275;-93
2023/09/08 15:27:44;;;;;;;7.20;6.25;;;26.30;28.00;;;;;;5015828;28;20195;-90
2023/09/08 15:30:14;;;;;;;6.50;5.75;;;26.40;27.70;;;;;;4986911;28;20258;-89
2023/09/08 15:32:41;;;;;;;8.73;6.25;;;26.30;27.00;;;;;;5016657;28;20195;-91
2023/09/08 15:35:09;;;;;;;8.20;6.05;;;26.20;27.50;;;;;;5021717;28;20199;-90
2023/09/08 15:40:18;;;;;;;7.50;6.70;;;26.20;27.40;;;;;;5000585;28;20223;-93
2023/09/08 15:45:14;;;;;;;6.80;5.88;;;26.10;28.00;;;;;;4998379;28;20227;-91
2023/09/08 15:47:41;;;;;;;7.47;6.10;;;25.90;29.40;;;;;;5604793;23;20215;-92
2023/09/08 15:55:19;;;;;;;8.88;6.80;;;25.80;30.40;;;;;;5964031;23;21122;-93
2023/09/08 15:57:46;;;;;;;8.05;6.00;;;25.70;30.80;;;;;;5232041;23;20231;-90
2023/09/08 16:02:48;;;;;;;7.55;5.72;;;25.60;31.30;;;;;;5104183;23;20238;-91
2023/09/08 16:05:15;;;;;;;7.25;6.55;;;25.60;32.10;;;;;;5364535;23;20217;-91
2023/09/08 16:12:57;;;;;;;7.57;6.80;;;25.50;38.90;;;;;;5730697;23;20280;-91
2023/09/08 16:23:10;;;;;;;7.60;6.90;;;25.40;46.60;;;;;;5278706;23;20226;-89
2023/09/08 16:25:37;;;;;;;7.90;7.10;;;25.30;47.80;;;;;;5682747;23;21420;-90
2023/09/08 16:35:54;;;;;;;7.70;6.93;;;25.00;55.10;;;;;;5536779;23;21047;-92
2023/09/08 16:38:21;;;;;;;8.18;7.38;;;24.90;57.60;;;;;;4980057;28;20240;-91
2023/09/08 16:40:48;;;;;;;7.05;6.43;;;25.00;57.90;;;;;;4986713;28;20226;-91
2023/09/08 16:45:57;;;;;;;10.68;7.65;;;24.80;60.40;;;;;;4969528;28;20211;-91
2023/09/08 16:48:25;;;;;;;9.18;7.68;;;24.70;61.20;;;;;;4947497;28;20723;-91
2023/09/08 17:06:36;;;;;;;10.00;7.88;;;24.30;76.30;;;;;;5388237;23;20234;-91
2023/09/08 17:14:14;;;;;;;8.80;7.90;;;24.00;79.90;;;;;;5742631;23;20226;-91
2023/09/08 17:16:44;;;;;;;8.20;7.40;;;24.20;77.80;;;;;;5884785;23;20448;-95
2023/09/08 18:48:04;;;;;;;11.73;10.60;;;21.50;94.20;;;;;;6233101;23;20179;-89
2023/09/08 20:15:13;;;;;;;14.25;12.75;;;20.20;97.80;;;;;;6268509;23;20170;-95
2023/09/08 20:21:06;;;;;;;13.48;12.07;;;20.20;97.40;;;;;;6257239;23;20169;-94
